createdAt,value
2022-08-20T00:03:41.479Z,99.90
2022-08-20T00:06:19.581Z,99.90
2022-08-20T00:08:48.349Z,99.90
2022-08-20T00:11:23.701Z,99.90
2022-08-20T00:13:57.110Z,99.90
2022-08-20T00:16:27.159Z,99.90
2022-08-20T00:18:54.881Z,99.90
2022-08-20T00:21:23.309Z,99.90
2022-08-20T00:23:57.261Z,99.90
2022-08-20T00:26:25.748Z,99.90
2022-08-20T00:28:56.401Z,99.90
2022-08-20T00:31:25.098Z,99.90
2022-08-20T00:33:53.132Z,99.90
2022-08-20T00:36:22.010Z,99.90
2022-08-20T00:39:01.230Z,99.90
2022-08-20T00:41:29.842Z,99.90
2022-08-20T00:44:14.431Z,99.90
2022-08-20T00:46:44.050Z,99.90
2022-08-20T00:49:26.761Z,99.90
2022-08-20T00:52:18.533Z,99.90
2022-08-20T00:54:52.444Z,99.90
2022-08-20T00:57:51.240Z,99.90
2022-08-20T01:00:33.555Z,99.90
2022-08-20T01:03:02.347Z,99.90
2022-08-20T01:05:31.337Z,99.90
2022-08-20T01:07:59.047Z,99.90
2022-08-20T01:10:36.764Z,99.90
2022-08-20T01:13:11.285Z,99.90
2022-08-20T01:15:43.428Z,99.90
2022-08-20T01:18:16.901Z,99.90
2022-08-20T01:20:51.901Z,99.90
2022-08-20T01:23:47.972Z,99.90
2022-08-20T01:26:23.191Z,99.90
2022-08-20T01:29:02.695Z,99.90
2022-08-20T01:31:34.517Z,99.90
2022-08-20T01:34:04.524Z,99.90
2022-08-20T01:36:48.509Z,99.90
2022-08-20T01:39:20.232Z,99.90
2022-08-20T01:42:17.432Z,99.90
2022-08-20T01:44:48.154Z,99.90
2022-08-20T01:47:25.395Z,99.90
2022-08-20T01:49:58.741Z,99.90
2022-08-20T01:53:04.531Z,99.90
2022-08-20T01:55:33.036Z,99.90
2022-08-20T01:58:02.477Z,99.90
2022-08-20T02:00:31.131Z,99.90
2022-08-20T02:02:58.770Z,99.90
2022-08-20T02:05:30.767Z,99.90
2022-08-20T02:07:59.024Z,99.90
2022-08-20T02:10:26.759Z,99.90
2022-08-20T02:12:55.004Z,99.90
2022-08-20T02:15:30.710Z,99.90
2022-08-20T02:18:08.793Z,99.90
2022-08-20T02:20:36.795Z,99.90
2022-08-20T02:23:05.599Z,99.90
2022-08-20T02:25:36.030Z,99.90
2022-08-20T02:28:05.632Z,99.90
2022-08-20T02:30:41.108Z,99.90
2022-08-20T02:33:14.506Z,99.90
2022-08-20T02:35:43.588Z,99.90
2022-08-20T02:38:12.372Z,99.90
2022-08-20T02:40:40.768Z,99.90
2022-08-20T02:43:08.804Z,99.90
2022-08-20T02:45:44.156Z,99.90
2022-08-20T02:48:21.424Z,99.90
2022-08-20T02:50:52.690Z,99.90
2022-08-20T02:53:20.935Z,99.90
2022-08-20T02:55:48.567Z,99.90
2022-08-20T02:58:16.760Z,99.90
2022-08-20T03:00:44.819Z,99.90
2022-08-20T03:03:12.975Z,99.90
2022-08-20T03:05:43.770Z,99.90
2022-08-20T03:08:13.933Z,99.90
2022-08-20T03:10:43.735Z,99.90
2022-08-20T03:13:15.562Z,99.90
2022-08-20T03:15:46.935Z,99.90
2022-08-20T03:18:15.681Z,99.90
2022-08-20T03:20:45.987Z,99.90
2022-08-20T03:23:14.837Z,99.90
2022-08-20T03:25:42.509Z,99.90
2022-08-20T03:28:10.977Z,99.90
2022-08-20T03:30:38.349Z,99.90
2022-08-20T03:33:06.109Z,99.90
2022-08-20T03:35:36.127Z,99.90
2022-08-20T03:38:09.431Z,99.90
2022-08-20T03:40:38.064Z,99.90
2022-08-20T03:43:08.885Z,99.90
2022-08-20T03:45:38.696Z,99.90
2022-08-20T03:48:10.644Z,99.90
2022-08-20T03:50:39.865Z,99.90
2022-08-20T03:53:07.641Z,99.90
2022-08-20T03:55:42.238Z,99.90
2022-08-20T03:58:13.712Z,99.90
2022-08-20T04:00:48.642Z,99.90
2022-08-20T04:03:17.177Z,99.90
2022-08-20T04:05:45.349Z,99.90
2022-08-20T04:08:22.820Z,99.90
2022-08-20T04:10:57.909Z,99.90
2022-08-20T04:13:27.202Z,99.90
2022-08-20T04:15:57.390Z,99.90
2022-08-20T04:18:27.115Z,99.90
2022-08-20T04:20:57.399Z,99.90
2022-08-20T04:23:25.281Z,99.90
2022-08-20T04:25:56.607Z,99.90
2022-08-20T04:28:27.890Z,99.90
2022-08-20T04:30:58.295Z,99.90
2022-08-20T04:33:34.186Z,99.90
2022-08-20T04:36:06.525Z,99.90
2022-08-20T04:38:50.700Z,99.90
2022-08-20T04:41:24.174Z,99.90
2022-08-20T04:43:54.549Z,99.90
2022-08-20T04:46:24.276Z,99.90
2022-08-20T04:48:51.851Z,99.90
2022-08-20T04:51:23.173Z,99.90
2022-08-20T04:53:54.481Z,99.90
2022-08-20T04:56:26.928Z,99.90
2022-08-20T04:58:57.127Z,99.90
2022-08-20T05:01:26.298Z,99.90
2022-08-20T05:03:55.085Z,99.90
2022-08-20T05:06:34.063Z,99.90
2022-08-20T05:09:04.225Z,99.90
2022-08-20T05:11:36.735Z,99.90
2022-08-20T05:14:09.383Z,99.90
2022-08-20T05:16:40.046Z,99.90
2022-08-20T05:19:09.998Z,99.90
2022-08-20T05:21:39.836Z,99.90
2022-08-20T05:24:08.250Z,99.90
2022-08-20T05:26:36.434Z,99.90
2022-08-20T05:29:05.934Z,99.90
2022-08-20T05:31:35.029Z,99.90
2022-08-20T05:34:11.047Z,99.90
2022-08-20T05:36:41.543Z,99.90
2022-08-20T05:39:10.726Z,99.90
2022-08-20T05:41:39.652Z,99.90
2022-08-20T05:44:13.882Z,99.90
2022-08-20T05:46:43.903Z,99.90
2022-08-20T05:49:19.828Z,99.90
2022-08-20T05:51:48.381Z,99.90
2022-08-20T05:54:18.596Z,99.90
2022-08-20T05:56:45.985Z,99.90
2022-08-20T05:59:14.185Z,99.90
2022-08-20T06:01:43.089Z,99.90
2022-08-20T06:04:32.902Z,99.90
2022-08-20T06:07:07.327Z,99.90
2022-08-20T06:09:36.576Z,99.90
2022-08-20T06:12:06.756Z,99.90
2022-08-20T06:14:34.639Z,99.90
2022-08-20T06:17:13.305Z,99.90
2022-08-20T06:19:44.088Z,99.90
2022-08-20T06:22:18.402Z,99.90
2022-08-20T06:24:51.671Z,99.90
2022-08-20T06:27:19.969Z,99.90
2022-08-20T06:29:48.332Z,99.90
2022-08-20T06:32:16.528Z,99.90
2022-08-20T06:34:50.654Z,99.90
2022-08-20T06:37:27.641Z,99.90
2022-08-20T06:40:11.472Z,99.90
2022-08-20T06:42:45.745Z,99.90
2022-08-20T06:45:19.138Z,99.90
2022-08-20T06:47:47.614Z,99.90
2022-08-20T06:50:20.982Z,99.90
2022-08-20T06:52:52.892Z,99.90
2022-08-20T06:55:22.254Z,99.90
2022-08-20T06:57:59.566Z,99.90
2022-08-20T07:00:29.762Z,99.90
2022-08-20T07:03:01.266Z,99.90
2022-08-20T07:05:34.502Z,99.90
2022-08-20T07:08:05.356Z,99.90
2022-08-20T07:10:35.042Z,99.90
2022-08-20T07:13:03.298Z,99.90
2022-08-20T07:15:31.054Z,99.90
2022-08-20T07:18:02.050Z,99.90
2022-08-20T07:20:32.144Z,99.90
2022-08-20T07:23:01.442Z,99.90
2022-08-20T07:25:31.159Z,99.90
2022-08-20T07:28:08.489Z,99.90
2022-08-20T07:30:57.780Z,99.90
2022-08-20T07:33:29.559Z,99.90
2022-08-20T07:35:58.593Z,99.90
2022-08-20T07:38:27.786Z,99.90
2022-08-20T07:40:58.899Z,99.90
2022-08-20T07:43:26.521Z,99.90
2022-08-20T07:45:57.747Z,99.90
2022-08-20T07:48:31.096Z,99.90
2022-08-20T07:51:05.065Z,99.90
2022-08-20T07:53:36.028Z,99.90
2022-08-20T07:56:11.660Z,99.90
2022-08-20T07:58:43.743Z,99.90
2022-08-20T08:01:12.215Z,99.90
2022-08-20T08:03:49.155Z,99.90
2022-08-20T08:06:29.067Z,99.90
2022-08-20T08:09:13.640Z,99.90
2022-08-20T08:11:47.417Z,99.90
2022-08-20T08:14:20.157Z,99.90
2022-08-20T08:16:47.902Z,99.90
2022-08-20T08:19:19.794Z,99.90
2022-08-20T08:21:47.382Z,99.90
2022-08-20T08:24:20.255Z,99.90
2022-08-20T08:26:50.427Z,99.90
2022-08-20T08:29:18.026Z,99.90
2022-08-20T08:31:45.618Z,99.90
2022-08-20T08:34:14.227Z,99.90
2022-08-20T08:36:44.583Z,99.90
2022-08-20T08:39:12.110Z,99.90
2022-08-20T08:41:50.195Z,99.90
2022-08-20T08:44:23.888Z,99.90
2022-08-20T08:47:03.394Z,99.90
2022-08-20T08:49:37.717Z,99.90
2022-08-20T08:52:24.576Z,99.90
2022-08-20T08:55:03.166Z,99.90
2022-08-20T08:57:32.543Z,99.90
2022-08-20T09:00:10.051Z,99.90
2022-08-20T09:02:39.329Z,99.90
2022-08-20T09:05:16.390Z,99.90
2022-08-20T09:07:48.956Z,99.90
2022-08-20T09:10:22.921Z,99.90
2022-08-20T09:12:52.848Z,99.90
2022-08-20T09:15:21.609Z,99.90
2022-08-20T09:17:49.266Z,99.90
2022-08-20T09:20:18.913Z,99.90
2022-08-20T09:22:46.694Z,99.90
2022-08-20T09:25:15.290Z,99.90
2022-08-20T09:27:43.564Z,99.90
2022-08-20T09:30:12.930Z,99.90
2022-08-20T09:32:42.017Z,99.90
2022-08-20T09:35:10.400Z,99.90
2022-08-20T09:37:38.138Z,99.90
2022-08-20T09:40:09.378Z,99.90
2022-08-20T09:42:41.663Z,99.90
2022-08-20T09:45:11.468Z,99.90
2022-08-20T09:47:51.763Z,99.90
2022-08-20T09:50:25.497Z,99.90
2022-08-20T09:52:55.185Z,99.90
2022-08-20T09:55:37.462Z,99.90
2022-08-20T09:58:33.524Z,99.90
2022-08-20T10:01:07.147Z,99.90
2022-08-20T10:03:43.174Z,99.90
2022-08-20T10:06:11.582Z,99.90
2022-08-20T10:08:39.064Z,99.90
2022-08-20T10:11:06.823Z,99.90
2022-08-20T10:13:34.260Z,99.90
2022-08-20T10:16:02.428Z,99.90
2022-08-20T10:18:30.760Z,99.90
2022-08-20T10:20:58.469Z,99.90
2022-08-20T10:23:27.266Z,99.90
2022-08-20T10:25:55.324Z,99.90
2022-08-20T10:28:22.718Z,99.90
2022-08-20T10:30:50.028Z,99.90
2022-08-20T10:33:17.781Z,99.90
2022-08-20T10:35:45.200Z,99.90
2022-08-20T10:38:12.926Z,99.90
2022-08-20T10:40:40.379Z,99.90
2022-08-20T10:43:07.824Z,99.90
2022-08-20T10:45:35.710Z,99.90
2022-08-20T10:48:07.813Z,99.90
2022-08-20T10:50:37.693Z,99.90
2022-08-20T10:53:04.941Z,99.90
2022-08-20T10:55:33.839Z,99.90
2022-08-20T10:58:01.175Z,99.90
2022-08-20T11:00:28.477Z,99.90
2022-08-20T11:02:56.242Z,99.90
2022-08-20T11:05:23.607Z,99.90
2022-08-20T11:07:56.230Z,99.90
2022-08-20T11:10:36.847Z,99.90
2022-08-20T11:13:06.392Z,99.90
2022-08-20T11:15:37.538Z,99.90
2022-08-20T11:18:06.045Z,99.90
2022-08-20T11:20:33.677Z,99.90
2022-08-20T11:23:02.185Z,99.90
2022-08-20T11:25:29.812Z,99.90
2022-08-20T11:27:58.138Z,99.90
2022-08-20T11:30:32.681Z,99.50
2022-08-20T11:33:01.542Z,99.50
2022-08-20T11:35:49.953Z,97.80
2022-08-20T11:38:19.735Z,96.40
2022-08-20T11:40:47.217Z,95.30
2022-08-20T11:43:16.943Z,99.20
2022-08-20T11:45:47.917Z,96.20
2022-08-20T11:48:15.983Z,96.30
2022-08-20T11:50:43.322Z,96.00
2022-08-20T11:53:10.773Z,94.70
2022-08-20T11:55:39.370Z,92.70
2022-08-20T11:58:07.516Z,91.30
2022-08-20T12:00:37.584Z,92.40
2022-08-20T12:03:09.288Z,94.10
2022-08-20T12:05:38.622Z,92.90
2022-08-20T12:08:07.321Z,92.80
2022-08-20T12:10:35.225Z,92.50
2022-08-20T12:13:10.271Z,90.70
2022-08-20T12:15:38.037Z,93.40
2022-08-20T12:18:09.398Z,91.90
2022-08-20T12:20:38.159Z,93.80
2022-08-20T12:23:05.649Z,93.60
2022-08-20T12:25:34.372Z,90.00
2022-08-20T12:28:05.338Z,91.20
2022-08-20T12:30:34.044Z,90.50
2022-08-20T12:33:03.125Z,90.40
2022-08-20T12:35:31.267Z,90.60
2022-08-20T12:38:06.275Z,91.10
2022-08-20T12:40:34.905Z,90.90
2022-08-20T12:43:04.826Z,90.00
2022-08-20T12:45:33.773Z,90.40
2022-08-20T12:48:09.193Z,90.30
2022-08-20T12:50:39.805Z,90.10
2022-08-20T12:53:07.313Z,87.60
2022-08-20T12:55:35.465Z,88.20
2022-08-20T12:58:04.757Z,85.80
2022-08-20T13:00:39.613Z,81.60
2022-08-20T13:03:12.336Z,79.40
2022-08-20T13:05:40.163Z,84.40
2022-08-20T13:08:10.642Z,83.70
2022-08-20T13:10:47.216Z,83.80
2022-08-20T13:13:20.917Z,83.40
2022-08-20T13:15:51.165Z,87.60
2022-08-20T13:18:19.985Z,87.90
2022-08-20T13:20:47.866Z,77.70
2022-08-20T13:23:16.009Z,80.90
2022-08-20T13:25:43.201Z,82.50
2022-08-20T13:28:10.631Z,81.80
2022-08-20T13:30:39.222Z,82.80
2022-08-20T13:33:06.655Z,83.50
2022-08-20T13:35:34.278Z,77.20
2022-08-20T13:38:02.776Z,80.50
2022-08-20T13:40:30.055Z,80.10
2022-08-20T13:42:58.916Z,81.30
2022-08-20T13:45:28.169Z,80.00
2022-08-20T13:47:55.880Z,82.40
2022-08-20T13:50:25.168Z,82.70
2022-08-20T13:52:52.875Z,82.00
2022-08-20T13:55:23.083Z,82.70
2022-08-20T13:57:51.361Z,83.60
2022-08-20T14:00:32.553Z,82.50
2022-08-20T14:03:04.005Z,81.40
2022-08-20T14:05:35.048Z,84.20
2022-08-20T14:08:15.356Z,84.60
2022-08-20T14:10:43.965Z,87.40
2022-08-20T14:13:15.585Z,83.90
2022-08-20T14:15:45.029Z,84.00
2022-08-20T14:18:14.755Z,80.70
2022-08-20T14:20:45.337Z,82.00
2022-08-20T14:23:13.849Z,82.40
2022-08-20T14:25:41.384Z,79.40
2022-08-20T14:28:34.983Z,83.70
2022-08-20T14:31:02.704Z,83.70
2022-08-20T14:33:30.657Z,87.00
2022-08-20T14:35:58.478Z,83.80
2022-08-20T14:38:27.038Z,85.10
2022-08-20T14:40:54.699Z,87.70
2022-08-20T14:43:22.427Z,86.40
2022-08-20T14:45:50.354Z,87.20
2022-08-20T14:48:19.078Z,88.20
2022-08-20T14:50:46.862Z,89.00
2022-08-20T14:53:14.200Z,88.50
2022-08-20T14:55:41.411Z,88.70
2022-08-20T14:58:13.570Z,88.40
2022-08-20T15:00:42.144Z,88.10
2022-08-20T15:03:09.808Z,87.90
2022-08-20T15:05:39.578Z,90.30
2022-08-20T15:08:08.261Z,91.00
2022-08-20T15:10:40.017Z,90.60
2022-08-20T15:13:09.054Z,89.90
2022-08-20T15:15:37.002Z,91.50
2022-08-20T15:18:04.931Z,88.50
2022-08-20T15:20:34.819Z,90.60
2022-08-20T15:23:04.295Z,91.40
2022-08-20T15:25:36.856Z,91.00
2022-08-20T15:28:07.260Z,91.90
2022-08-20T15:30:34.650Z,92.60
2022-08-20T15:33:03.687Z,92.80
2022-08-20T15:35:32.082Z,93.80
2022-08-20T15:37:59.873Z,95.30
2022-08-20T15:40:32.705Z,93.30
2022-08-20T15:43:05.559Z,94.40
2022-08-20T15:45:35.697Z,95.50
2022-08-20T15:48:21.193Z,96.20
2022-08-20T15:50:48.439Z,96.70
2022-08-20T15:53:58.693Z,97.00
2022-08-20T15:56:38.351Z,96.10
2022-08-20T15:59:12.622Z,97.20
2022-08-20T16:02:16.569Z,96.60
2022-08-20T16:05:11.431Z,95.10
2022-08-20T16:07:42.554Z,97.00
2022-08-20T16:10:16.801Z,98.00
2022-08-20T16:12:49.631Z,98.90
2022-08-20T16:15:24.502Z,99.70
2022-08-20T16:18:16.810Z,98.80
2022-08-20T16:20:48.063Z,99.60
2022-08-20T16:23:18.334Z,99.80
2022-08-20T16:26:05.938Z,99.90
2022-08-20T16:28:49.336Z,99.90
2022-08-20T16:31:21.059Z,99.90
2022-08-20T16:34:34.234Z,99.90
2022-08-20T16:37:23.816Z,99.90
2022-08-20T16:40:19.885Z,99.90
2022-08-20T16:42:51.386Z,99.90
2022-08-20T16:45:25.218Z,99.90
2022-08-20T16:47:56.160Z,99.90
2022-08-20T16:50:27.068Z,99.90
2022-08-20T16:52:54.901Z,99.90
2022-08-20T16:55:23.856Z,99.90
2022-08-20T16:57:53.053Z,99.90
2022-08-20T17:00:44.799Z,99.90
2022-08-20T17:03:31.495Z,99.90
2022-08-20T17:06:39.796Z,99.90
2022-08-20T17:09:14.826Z,99.90
2022-08-20T17:11:47.530Z,99.90
2022-08-20T17:14:17.846Z,99.90
2022-08-20T17:16:48.485Z,99.90
2022-08-20T17:19:29.146Z,99.90
2022-08-20T17:22:08.964Z,99.90
2022-08-20T17:24:38.516Z,99.90
2022-08-20T17:27:15.139Z,99.90
2022-08-20T17:30:04.135Z,99.90
2022-08-20T17:32:33.051Z,99.90
2022-08-20T17:35:02.553Z,99.90
2022-08-20T17:37:34.974Z,99.90
2022-08-20T17:40:18.467Z,99.90
2022-08-20T17:42:53.974Z,99.90
2022-08-20T17:45:31.543Z,99.90
2022-08-20T17:48:01.202Z,99.90
2022-08-20T17:50:37.456Z,99.90
2022-08-20T17:53:23.814Z,99.90
2022-08-20T17:56:00.931Z,99.90
2022-08-20T17:59:06.116Z,99.90
2022-08-20T18:01:39.280Z,99.90
2022-08-20T18:04:08.046Z,99.90
2022-08-20T18:06:54.056Z,99.90
2022-08-20T18:09:58.344Z,99.90
2022-08-20T18:12:34.097Z,99.90
2022-08-20T18:15:24.671Z,99.90
2022-08-20T18:18:07.425Z,99.90
2022-08-20T18:20:56.179Z,99.90
2022-08-20T18:23:52.573Z,99.90
2022-08-20T18:26:29.695Z,99.90
2022-08-20T18:29:17.871Z,99.90
2022-08-20T18:31:52.760Z,99.90
2022-08-20T18:34:42.452Z,99.90
2022-08-20T18:37:13.160Z,99.90
2022-08-20T18:39:43.973Z,99.90
2022-08-20T18:42:36.281Z,99.90
2022-08-20T18:45:07.688Z,99.90
2022-08-20T18:47:35.245Z,99.90
2022-08-20T18:50:19.396Z,99.90
2022-08-20T18:52:54.024Z,99.90
2022-08-20T18:55:59.698Z,99.90
2022-08-20T18:58:34.708Z,99.90
2022-08-20T19:01:10.868Z,99.90
2022-08-20T19:03:44.721Z,99.90
2022-08-20T19:06:21.822Z,99.90
2022-08-20T19:08:51.315Z,99.90
2022-08-20T19:11:25.517Z,99.90
2022-08-20T19:14:40.725Z,99.90
2022-08-20T19:17:17.511Z,99.90
2022-08-20T19:19:45.135Z,99.90
2022-08-20T19:22:15.943Z,99.90
2022-08-20T19:24:44.571Z,99.90
2022-08-20T19:27:12.871Z,99.90
2022-08-20T19:29:47.115Z,99.90
2022-08-20T19:32:25.014Z,99.90
2022-08-20T19:34:57.220Z,99.90
2022-08-20T19:37:39.709Z,99.90
2022-08-20T19:40:38.842Z,99.90
2022-08-20T19:43:12.251Z,99.90
2022-08-20T19:45:48.244Z,99.90
2022-08-20T19:48:37.571Z,99.90
2022-08-20T19:51:11.821Z,99.90
2022-08-20T19:53:46.386Z,99.90
2022-08-20T19:56:18.966Z,99.90
2022-08-20T19:58:57.386Z,99.90
2022-08-20T20:01:25.475Z,99.90
2022-08-20T20:04:05.589Z,99.90
2022-08-20T20:06:38.159Z,99.90
2022-08-20T20:09:34.065Z,99.90
2022-08-20T20:12:11.374Z,99.90
2022-08-20T20:14:53.821Z,99.90
2022-08-20T20:17:24.653Z,99.90
2022-08-20T20:19:57.307Z,99.90
2022-08-20T20:22:29.094Z,99.90
2022-08-20T20:24:59.633Z,99.90
2022-08-20T20:27:28.945Z,99.90
2022-08-20T20:30:04.025Z,99.90
2022-08-20T20:32:34.214Z,99.90
2022-08-20T20:35:05.826Z,99.90
2022-08-20T20:37:50.846Z,99.90
2022-08-20T20:40:36.008Z,99.90
2022-08-20T20:43:09.248Z,99.90
2022-08-20T20:45:55.679Z,99.90
2022-08-20T20:48:26.206Z,99.90
2022-08-20T20:50:56.379Z,99.90
2022-08-20T20:53:53.043Z,99.90
2022-08-20T20:56:38.799Z,99.90
2022-08-20T20:59:11.145Z,99.90
2022-08-20T21:01:48.766Z,99.90
2022-08-20T21:04:23.586Z,99.90
2022-08-20T21:06:57.600Z,99.90
2022-08-20T21:09:27.188Z,99.90
2022-08-20T21:11:54.550Z,99.90
2022-08-20T21:14:21.939Z,99.90
2022-08-20T21:16:49.696Z,99.90
2022-08-20T21:19:18.430Z,99.90
2022-08-20T21:21:46.014Z,99.90
2022-08-20T21:24:13.618Z,99.90
2022-08-20T21:26:41.695Z,99.90
2022-08-20T21:29:11.843Z,99.90
2022-08-20T21:31:45.142Z,99.90
2022-08-20T21:34:15.631Z,99.90
2022-08-20T21:36:43.488Z,99.90
2022-08-20T21:39:12.386Z,99.90
2022-08-20T21:41:42.771Z,99.90
2022-08-20T21:44:24.177Z,99.90
2022-08-20T21:46:54.431Z,99.90
2022-08-20T21:49:23.277Z,99.90
2022-08-20T21:51:51.099Z,99.90
2022-08-20T21:54:20.308Z,99.90
2022-08-20T21:56:54.457Z,99.90
2022-08-20T21:59:24.362Z,99.90
2022-08-20T22:01:53.261Z,99.90
2022-08-20T22:04:21.587Z,99.90
2022-08-20T22:06:49.464Z,99.90
2022-08-20T22:09:18.052Z,99.90
2022-08-20T22:11:48.539Z,99.90
2022-08-20T22:14:18.832Z,99.90
2022-08-20T22:16:46.283Z,99.90
2022-08-20T22:19:16.224Z,99.90
2022-08-20T22:21:44.994Z,99.90
2022-08-20T22:24:14.211Z,99.90
2022-08-20T22:26:43.067Z,99.90
2022-08-20T22:29:12.526Z,99.90
2022-08-20T22:31:42.682Z,99.90
2022-08-20T22:34:12.393Z,99.90
2022-08-20T22:36:40.573Z,99.90
2022-08-20T22:39:08.658Z,99.90
2022-08-20T22:41:36.947Z,99.90
2022-08-20T22:44:04.459Z,99.90
2022-08-20T22:46:36.246Z,99.90
2022-08-20T22:49:05.145Z,99.90
2022-08-20T22:51:38.713Z,99.90
2022-08-20T22:54:10.589Z,99.90
2022-08-20T22:56:37.970Z,99.90
2022-08-20T22:59:09.539Z,99.90
2022-08-20T23:01:38.786Z,99.90
2022-08-20T23:04:26.475Z,99.90
2022-08-20T23:06:55.041Z,99.90
2022-08-20T23:09:22.741Z,99.90
2022-08-20T23:11:50.577Z,99.90
2022-08-20T23:14:18.121Z,99.90
2022-08-20T23:16:48.362Z,99.90
2022-08-20T23:19:21.970Z,99.90
2022-08-20T23:21:51.394Z,99.90
2022-08-20T23:24:19.884Z,99.90
2022-08-20T23:26:52.428Z,99.90
2022-08-20T23:29:25.915Z,99.90
2022-08-20T23:31:56.089Z,99.90
2022-08-20T23:34:24.209Z,99.90
2022-08-20T23:36:53.168Z,99.90
2022-08-20T23:39:21.145Z,99.90
2022-08-20T23:41:48.715Z,99.90
2022-08-20T23:44:25.819Z,99.90
2022-08-20T23:47:01.607Z,99.90
2022-08-20T23:49:32.800Z,99.90
2022-08-20T23:52:01.662Z,99.90
2022-08-20T23:54:31.786Z,99.90
2022-08-20T23:57:01.398Z,99.90
2022-08-20T23:59:36.274Z,99.90
